createdAt,value
2022-10-05T00:01:29.626Z,9.26
2022-10-05T00:04:10.904Z,9.27
2022-10-05T00:06:37.578Z,9.28
2022-10-05T00:09:10.818Z,9.27
2022-10-05T00:11:37.451Z,9.26
2022-10-05T00:14:33.525Z,9.25
2022-10-05T00:17:00.840Z,9.22
2022-10-05T00:19:33.127Z,9.22
2022-10-05T00:22:00.396Z,9.20
2022-10-05T00:24:26.893Z,9.19
2022-10-05T00:26:57.794Z,9.18
2022-10-05T00:29:24.852Z,9.10
2022-10-05T00:31:51.652Z,9.15
2022-10-05T00:34:18.617Z,9.15
2022-10-05T00:36:45.634Z,9.14
2022-10-05T00:39:12.407Z,9.15
2022-10-05T00:41:46.801Z,9.16
2022-10-05T00:44:32.850Z,9.18
2022-10-05T00:47:18.533Z,9.20
2022-10-05T00:49:50.932Z,9.22
2022-10-05T00:52:44.094Z,9.27
2022-10-05T00:55:18.735Z,9.29
2022-10-05T00:58:01.580Z,9.32
2022-10-05T01:00:28.278Z,9.31
2022-10-05T01:03:01.468Z,9.33
2022-10-05T01:05:35.066Z,9.32
2022-10-05T01:08:18.266Z,9.33
2022-10-05T01:10:47.554Z,9.36
2022-10-05T01:13:17.131Z,9.36
2022-10-05T01:15:46.495Z,9.36
2022-10-05T01:18:39.139Z,9.38
2022-10-05T01:21:08.629Z,9.38
2022-10-05T01:23:50.309Z,9.40
2022-10-05T01:26:56.157Z,9.39
2022-10-05T01:29:33.402Z,9.38
2022-10-05T01:32:20.253Z,9.37
2022-10-05T01:34:58.875Z,9.34
2022-10-05T01:37:30.470Z,9.32
2022-10-05T01:39:56.968Z,9.31
2022-10-05T01:42:32.532Z,9.31
2022-10-05T01:45:31.984Z,9.30
2022-10-05T01:48:07.666Z,9.33
2022-10-05T01:50:48.213Z,9.34
2022-10-05T01:53:26.644Z,9.32
2022-10-05T01:56:06.002Z,9.31
2022-10-05T01:58:48.391Z,9.32
2022-10-05T02:01:25.374Z,9.31
2022-10-05T02:04:11.034Z,9.33
2022-10-05T02:06:41.347Z,9.34
2022-10-05T02:09:28.523Z,9.34
2022-10-05T02:12:04.734Z,9.33
2022-10-05T02:14:45.747Z,9.33
2022-10-05T02:17:17.263Z,9.32
2022-10-05T02:19:49.906Z,9.32
2022-10-05T02:22:22.043Z,9.30
2022-10-05T02:24:51.955Z,9.29
2022-10-05T02:27:23.130Z,9.28
2022-10-05T02:29:50.883Z,9.26
2022-10-05T02:32:21.215Z,9.26
2022-10-05T02:34:48.233Z,9.26
2022-10-05T02:37:34.319Z,9.25
2022-10-05T02:40:20.223Z,9.21
2022-10-05T02:42:55.304Z,9.20
2022-10-05T02:45:31.840Z,9.18
2022-10-05T02:48:15.098Z,9.14
2022-10-05T02:50:45.193Z,9.14
2022-10-05T02:53:47.231Z,9.11
2022-10-05T02:56:20.470Z,9.08
2022-10-05T02:58:58.799Z,9.07
2022-10-05T03:01:31.702Z,9.06
2022-10-05T03:04:17.051Z,9.04
2022-10-05T03:06:58.744Z,9.03
2022-10-05T03:09:28.725Z,9.03
2022-10-05T03:12:14.712Z,9.02
2022-10-05T03:14:59.500Z,9.01
2022-10-05T03:17:30.787Z,8.99
2022-10-05T03:20:16.075Z,8.99
2022-10-05T03:22:53.237Z,8.99
2022-10-05T03:25:36.915Z,8.98
2022-10-05T03:28:06.656Z,9.01
2022-10-05T03:30:39.769Z,9.02
2022-10-05T03:33:14.792Z,9.01
2022-10-05T03:35:49.928Z,9.02
2022-10-05T03:38:17.393Z,9.02
2022-10-05T03:40:50.541Z,9.04
2022-10-05T03:43:34.976Z,9.04
2022-10-05T03:46:08.776Z,9.06
2022-10-05T03:48:40.226Z,9.07
2022-10-05T03:51:16.202Z,9.07
2022-10-05T03:53:47.814Z,9.08
2022-10-05T03:56:16.400Z,9.08
2022-10-05T03:58:53.495Z,9.08
2022-10-05T04:01:23.544Z,9.08
2022-10-05T04:03:57.494Z,9.03
2022-10-05T04:06:26.435Z,9.10
2022-10-05T04:09:05.549Z,9.10
2022-10-05T04:11:35.493Z,9.10
2022-10-05T04:14:11.556Z,9.09
2022-10-05T04:16:46.241Z,9.08
2022-10-05T04:19:34.245Z,9.07
2022-10-05T04:22:07.744Z,9.04
2022-10-05T04:24:43.224Z,9.01
2022-10-05T04:27:16.542Z,9.00
2022-10-05T04:29:58.404Z,8.98
2022-10-05T04:32:45.220Z,8.98
2022-10-05T04:35:15.636Z,8.96
2022-10-05T04:38:01.132Z,8.95
2022-10-05T04:40:28.594Z,8.93
2022-10-05T04:43:12.619Z,8.96
2022-10-05T04:45:48.906Z,8.97
2022-10-05T04:48:18.182Z,8.98
2022-10-05T04:50:57.401Z,9.02
2022-10-05T04:53:23.988Z,9.02
2022-10-05T04:55:56.494Z,9.04
2022-10-05T04:58:42.701Z,9.06
2022-10-05T05:01:10.479Z,9.06
2022-10-05T05:03:45.628Z,9.08
2022-10-05T05:06:19.550Z,9.08
2022-10-05T05:09:14.299Z,9.09
2022-10-05T05:12:01.146Z,9.09
2022-10-05T05:14:46.451Z,9.15
2022-10-05T05:17:32.480Z,9.19
2022-10-05T05:20:19.701Z,9.21
2022-10-05T05:23:05.517Z,9.25
2022-10-05T05:25:48.911Z,9.23
2022-10-05T05:28:30.179Z,9.26
2022-10-05T05:31:05.562Z,9.29
2022-10-05T05:33:40.814Z,9.31
2022-10-05T05:36:22.879Z,9.35
2022-10-05T05:38:53.534Z,9.37
2022-10-05T05:41:39.453Z,9.40
2022-10-05T05:44:22.119Z,9.42
2022-10-05T05:47:24.613Z,9.47
2022-10-05T05:50:07.315Z,9.52
2022-10-05T05:52:47.024Z,9.58
2022-10-05T05:55:13.929Z,9.61
2022-10-05T05:57:48.063Z,9.63
2022-10-05T06:00:20.827Z,9.64
2022-10-05T06:02:54.484Z,9.68
2022-10-05T06:05:25.122Z,9.69
2022-10-05T06:07:53.708Z,9.71
2022-10-05T06:10:26.501Z,9.74
2022-10-05T06:12:59.647Z,9.81
2022-10-05T06:15:37.776Z,9.87
2022-10-05T06:18:10.767Z,9.94
2022-10-05T06:20:42.635Z,10.01
2022-10-05T06:23:13.273Z,10.04
2022-10-05T06:25:58.756Z,10.09
2022-10-05T06:28:27.358Z,10.09
2022-10-05T06:30:54.266Z,10.10
2022-10-05T06:33:24.023Z,10.12
2022-10-05T06:36:08.310Z,10.17
2022-10-05T06:38:35.085Z,10.19
2022-10-05T06:41:08.087Z,10.20
2022-10-05T06:43:35.426Z,10.22
2022-10-05T06:46:07.184Z,10.22
2022-10-05T06:48:34.388Z,10.26
2022-10-05T06:51:07.359Z,10.28
2022-10-05T06:53:34.585Z,10.33
2022-10-05T06:56:21.681Z,10.38
2022-10-05T06:58:48.913Z,10.41
2022-10-05T07:01:23.878Z,10.46
2022-10-05T07:04:08.936Z,10.50
2022-10-05T07:06:54.370Z,10.58
2022-10-05T07:09:55.633Z,10.69
2022-10-05T07:12:40.584Z,10.78
2022-10-05T07:15:14.877Z,10.82
2022-10-05T07:18:10.117Z,10.85
2022-10-05T07:20:58.458Z,10.89
2022-10-05T07:23:27.920Z,10.88
2022-10-05T07:26:14.959Z,10.87
2022-10-05T07:28:48.092Z,10.87
2022-10-05T07:31:39.909Z,10.91
2022-10-05T07:34:06.654Z,10.96
2022-10-05T07:36:58.961Z,10.98
2022-10-05T07:40:00.126Z,10.95
2022-10-05T07:42:51.854Z,11.01
2022-10-05T07:45:22.457Z,11.09
2022-10-05T07:48:01.957Z,11.15
2022-10-05T07:50:38.775Z,11.16
2022-10-05T07:53:11.021Z,11.20
2022-10-05T07:55:41.986Z,11.21
2022-10-05T07:58:18.774Z,11.21
2022-10-05T08:00:48.618Z,11.20
2022-10-05T08:03:23.475Z,11.22
2022-10-05T08:05:50.538Z,11.29
2022-10-05T08:08:25.022Z,11.39
2022-10-05T08:10:56.974Z,11.44
2022-10-05T08:13:28.461Z,11.45
2022-10-05T08:15:58.006Z,11.43
2022-10-05T08:18:37.581Z,11.39
2022-10-05T08:21:06.330Z,11.35
2022-10-05T08:23:39.275Z,11.31
2022-10-05T08:26:05.847Z,11.36
2022-10-05T08:28:32.405Z,11.42
2022-10-05T08:31:08.816Z,11.49
2022-10-05T08:33:46.553Z,11.56
2022-10-05T08:36:14.718Z,11.63
2022-10-05T08:38:42.084Z,11.68
2022-10-05T08:41:23.696Z,11.72
2022-10-05T08:43:50.667Z,11.73
2022-10-05T08:46:37.646Z,11.73
2022-10-05T08:49:34.249Z,11.75
2022-10-05T08:52:20.898Z,11.81
2022-10-05T08:55:06.663Z,11.91
2022-10-05T08:57:51.539Z,12.01
2022-10-05T09:00:25.198Z,12.09
2022-10-05T09:02:51.767Z,12.12
2022-10-05T09:05:51.150Z,12.13
2022-10-05T09:08:30.988Z,12.10
2022-10-05T09:11:19.691Z,12.04
2022-10-05T09:13:49.521Z,12.02
2022-10-05T09:16:28.850Z,12.01
2022-10-05T09:19:14.629Z,12.04
2022-10-05T09:21:57.395Z,12.07
2022-10-05T09:24:23.966Z,12.14
2022-10-05T09:27:00.069Z,12.19
2022-10-05T09:29:45.399Z,12.27
2022-10-05T09:32:31.023Z,12.34
2022-10-05T09:35:26.674Z,12.35
2022-10-05T09:37:59.907Z,12.33
2022-10-05T09:40:42.037Z,12.31
2022-10-05T09:43:15.377Z,12.32
2022-10-05T09:46:01.352Z,12.31
2022-10-05T09:48:28.242Z,12.33
2022-10-05T09:51:07.242Z,12.35
2022-10-05T09:53:53.070Z,12.35
2022-10-05T09:56:22.820Z,12.34
2022-10-05T09:58:55.782Z,12.35
2022-10-05T10:01:35.231Z,12.41
2022-10-05T10:04:12.292Z,12.47
2022-10-05T10:06:59.518Z,12.51
2022-10-05T10:09:37.902Z,12.52
2022-10-05T10:12:11.495Z,12.54
2022-10-05T10:14:49.543Z,12.57
2022-10-05T10:17:30.639Z,12.61
2022-10-05T10:20:15.898Z,12.60
2022-10-05T10:22:51.958Z,12.65
2022-10-05T10:25:34.795Z,12.72
2022-10-05T10:28:20.130Z,12.83
2022-10-05T10:31:11.956Z,12.95
2022-10-05T10:33:41.682Z,12.96
2022-10-05T10:36:08.490Z,13.00
2022-10-05T10:38:53.211Z,13.02
2022-10-05T10:41:34.100Z,13.04
2022-10-05T10:44:16.106Z,13.09
2022-10-05T10:47:21.932Z,13.15
2022-10-05T10:50:07.453Z,13.20
2022-10-05T10:52:46.422Z,13.23
2022-10-05T10:55:31.938Z,13.26
2022-10-05T10:57:58.896Z,13.27
2022-10-05T11:00:44.582Z,13.22
2022-10-05T11:03:20.378Z,13.30
2022-10-05T11:06:07.608Z,13.34
2022-10-05T11:08:34.558Z,13.35
2022-10-05T11:11:19.982Z,13.40
2022-10-05T11:13:47.644Z,13.42
2022-10-05T11:16:19.629Z,13.42
2022-10-05T11:19:06.941Z,13.45
2022-10-05T11:21:52.344Z,13.47
2022-10-05T11:24:38.727Z,13.47
2022-10-05T11:27:14.932Z,13.42
2022-10-05T11:29:56.008Z,13.39
2022-10-05T11:32:25.660Z,13.40
2022-10-05T11:34:55.791Z,13.40
2022-10-05T11:37:40.941Z,13.36
2022-10-05T11:40:26.958Z,13.35
2022-10-05T11:42:59.620Z,13.35
2022-10-05T11:45:40.039Z,13.34
2022-10-05T11:48:09.797Z,13.33
2022-10-05T11:50:48.787Z,13.31
2022-10-05T11:53:22.251Z,13.33
2022-10-05T11:56:01.047Z,13.35
2022-10-05T11:58:29.780Z,13.37
2022-10-05T12:01:00.775Z,13.39
2022-10-05T12:03:36.318Z,13.37
2022-10-05T12:06:15.358Z,13.35
2022-10-05T12:08:56.333Z,13.34
2022-10-05T12:11:36.006Z,13.32
2022-10-05T12:14:12.083Z,13.31
2022-10-05T12:16:46.821Z,13.28
2022-10-05T12:19:19.630Z,13.28
2022-10-05T12:21:53.735Z,13.30
2022-10-05T12:24:28.117Z,13.32
2022-10-05T12:27:01.439Z,13.32
2022-10-05T12:29:44.173Z,13.35
2022-10-05T12:32:16.219Z,13.37
2022-10-05T12:35:01.427Z,13.38
2022-10-05T12:37:28.953Z,13.39
2022-10-05T12:40:18.696Z,13.37
2022-10-05T12:43:03.400Z,13.34
2022-10-05T12:45:49.321Z,13.31
2022-10-05T12:48:23.998Z,13.27
2022-10-05T12:50:55.069Z,13.23
2022-10-05T12:53:34.525Z,13.17
2022-10-05T12:56:04.255Z,13.12
2022-10-05T12:58:42.796Z,13.11
2022-10-05T13:01:18.766Z,13.09
2022-10-05T13:03:53.194Z,13.10
2022-10-05T13:06:19.984Z,13.07
2022-10-05T13:08:56.007Z,13.09
2022-10-05T13:11:28.615Z,13.09
2022-10-05T13:14:05.240Z,13.11
2022-10-05T13:16:38.552Z,13.14
2022-10-05T13:19:11.520Z,13.15
2022-10-05T13:21:38.687Z,13.16
2022-10-05T13:24:20.795Z,13.16
2022-10-05T13:26:58.233Z,13.17
2022-10-05T13:29:34.680Z,13.18
2022-10-05T13:32:07.481Z,13.18
2022-10-05T13:34:54.417Z,13.17
2022-10-05T13:38:01.661Z,13.17
2022-10-05T13:40:33.929Z,13.17
2022-10-05T13:43:14.979Z,13.15
2022-10-05T13:45:55.674Z,13.14
2022-10-05T13:48:42.995Z,13.12
2022-10-05T13:51:18.162Z,13.11
2022-10-05T13:53:49.299Z,13.11
2022-10-05T13:56:24.314Z,13.11
2022-10-05T13:58:57.925Z,13.12
2022-10-05T14:01:28.242Z,13.09
2022-10-05T14:04:13.921Z,13.08
2022-10-05T14:06:40.503Z,13.04
2022-10-05T14:09:12.634Z,13.02
2022-10-05T14:11:47.264Z,12.99
2022-10-05T14:14:16.350Z,12.99
2022-10-05T14:16:48.233Z,12.99
2022-10-05T14:19:22.508Z,13.00
2022-10-05T14:21:53.708Z,13.01
2022-10-05T14:24:43.966Z,13.01
2022-10-05T14:27:20.207Z,13.03
2022-10-05T14:29:52.882Z,13.04
2022-10-05T14:32:22.612Z,13.06
2022-10-05T14:35:08.886Z,13.06
2022-10-05T14:37:49.386Z,13.04
2022-10-05T14:40:25.643Z,13.04
2022-10-05T14:42:52.323Z,13.00
2022-10-05T14:45:29.864Z,12.98
2022-10-05T14:48:00.269Z,12.95
2022-10-05T14:50:30.700Z,12.92
2022-10-05T14:53:04.287Z,12.90
2022-10-05T14:55:41.574Z,12.87
2022-10-05T14:58:26.560Z,12.82
2022-10-05T15:01:02.354Z,12.79
2022-10-05T15:03:29.305Z,12.76
2022-10-05T15:05:59.108Z,12.73
2022-10-05T15:08:31.675Z,12.71
2022-10-05T15:11:07.796Z,12.70
2022-10-05T15:13:37.537Z,12.67
2022-10-05T15:16:13.729Z,12.65
2022-10-05T15:18:48.805Z,12.62
2022-10-05T15:21:15.670Z,12.59
2022-10-05T15:23:47.257Z,12.57
2022-10-05T15:26:25.738Z,12.55
2022-10-05T15:28:54.378Z,12.52
2022-10-05T15:31:21.020Z,12.50
2022-10-05T15:33:59.068Z,12.48
2022-10-05T15:36:35.530Z,12.47
2022-10-05T15:39:20.887Z,12.45
2022-10-05T15:42:05.289Z,12.44
2022-10-05T15:44:34.049Z,12.42
2022-10-05T15:47:09.167Z,12.40
2022-10-05T15:49:41.908Z,12.36
2022-10-05T15:52:17.651Z,12.34
2022-10-05T15:55:08.067Z,12.32
2022-10-05T15:57:59.629Z,12.23
2022-10-05T16:00:27.311Z,12.27
2022-10-05T16:03:13.986Z,12.25
2022-10-05T16:06:04.210Z,12.24
2022-10-05T16:08:51.501Z,12.21
2022-10-05T16:11:36.732Z,12.19
2022-10-05T16:14:18.912Z,12.19
2022-10-05T16:16:51.396Z,12.16
2022-10-05T16:19:21.390Z,12.15
2022-10-05T16:22:00.604Z,12.13
2022-10-05T16:24:47.349Z,12.13
2022-10-05T16:27:20.777Z,12.12
2022-10-05T16:29:59.896Z,12.10
2022-10-05T16:32:33.743Z,12.09
2022-10-05T16:35:21.540Z,12.08
2022-10-05T16:37:58.922Z,12.05
2022-10-05T16:40:45.220Z,12.03
2022-10-05T16:43:35.266Z,12.01
2022-10-05T16:46:02.195Z,12.01
2022-10-05T16:48:30.923Z,12.00
2022-10-05T16:50:57.403Z,11.98
2022-10-05T16:53:24.247Z,11.97
2022-10-05T16:55:56.017Z,11.97
2022-10-05T16:58:27.395Z,11.95
2022-10-05T17:01:09.962Z,11.94
2022-10-05T17:03:38.981Z,11.93
2022-10-05T17:06:24.934Z,11.92
2022-10-05T17:09:10.112Z,11.91
2022-10-05T17:11:55.599Z,11.92
2022-10-05T17:14:35.139Z,11.90
2022-10-05T17:17:17.242Z,11.89
2022-10-05T17:19:46.658Z,11.89
2022-10-05T17:22:37.604Z,11.88
2022-10-05T17:25:14.410Z,11.89
2022-10-05T17:27:42.641Z,11.90
2022-10-05T17:30:27.622Z,11.91
2022-10-05T17:33:14.159Z,11.91
2022-10-05T17:35:49.109Z,11.93
2022-10-05T17:38:18.119Z,11.92
2022-10-05T17:40:59.795Z,11.91
2022-10-05T17:43:27.711Z,11.89
2022-10-05T17:45:54.351Z,11.88
2022-10-05T17:48:37.897Z,11.88
2022-10-05T17:51:33.998Z,11.87
2022-10-05T17:54:35.849Z,11.86
2022-10-05T17:57:02.941Z,11.87
2022-10-05T17:59:59.025Z,11.87
2022-10-05T18:02:36.339Z,11.87
2022-10-05T18:05:06.818Z,11.86
2022-10-05T18:07:34.821Z,11.86
2022-10-05T18:10:15.533Z,11.86
2022-10-05T18:12:45.401Z,11.87
2022-10-05T18:15:21.417Z,11.89
2022-10-05T18:17:59.678Z,11.89
2022-10-05T18:20:30.065Z,11.90
2022-10-05T18:23:02.768Z,11.92
2022-10-05T18:25:35.461Z,11.92
2022-10-05T18:28:03.959Z,11.94
2022-10-05T18:30:34.937Z,11.97
2022-10-05T18:33:14.558Z,11.99
2022-10-05T18:35:44.196Z,12.00
2022-10-05T18:38:14.091Z,12.00
2022-10-05T18:40:46.571Z,11.99
2022-10-05T18:43:19.960Z,11.98
2022-10-05T18:45:49.446Z,11.98
2022-10-05T18:48:16.249Z,11.97
2022-10-05T18:50:46.506Z,11.98
2022-10-05T18:53:13.041Z,11.98
2022-10-05T18:55:45.483Z,11.98
2022-10-05T18:58:17.192Z,11.99
2022-10-05T19:00:47.056Z,11.99
2022-10-05T19:03:23.006Z,11.99
2022-10-05T19:05:58.338Z,11.99
2022-10-05T19:08:39.469Z,11.99
2022-10-05T19:11:27.771Z,11.99
2022-10-05T19:13:59.867Z,11.98
2022-10-05T19:16:35.667Z,11.98
2022-10-05T19:19:04.308Z,11.98
2022-10-05T19:21:46.672Z,11.99
2022-10-05T19:24:19.163Z,11.99
2022-10-05T19:26:55.143Z,12.00
2022-10-05T19:29:40.534Z,11.98
2022-10-05T19:32:18.614Z,12.00
2022-10-05T19:34:46.139Z,12.02
2022-10-05T19:37:22.094Z,12.03
2022-10-05T19:39:48.802Z,12.03
2022-10-05T19:42:18.578Z,12.04
2022-10-05T19:44:52.304Z,11.99
2022-10-05T19:47:51.414Z,12.06
2022-10-05T19:50:18.340Z,12.04
2022-10-05T19:52:49.803Z,12.04
2022-10-05T19:55:26.197Z,12.04
2022-10-05T19:58:00.496Z,12.03
2022-10-05T20:00:31.329Z,12.03
2022-10-05T20:03:14.384Z,12.04
2022-10-05T20:05:41.079Z,12.04
2022-10-05T20:08:08.252Z,12.05
2022-10-05T20:10:34.910Z,12.04
2022-10-05T20:13:02.637Z,12.04
2022-10-05T20:15:49.019Z,12.03
2022-10-05T20:18:54.853Z,12.05
2022-10-05T20:21:39.986Z,12.01
2022-10-05T20:24:27.321Z,12.02
2022-10-05T20:27:06.435Z,12.01
2022-10-05T20:29:35.494Z,12.01
2022-10-05T20:32:08.205Z,12.00
2022-10-05T20:34:35.614Z,12.00
2022-10-05T20:37:02.937Z,11.99
2022-10-05T20:39:30.495Z,12.00
2022-10-05T20:41:57.510Z,11.99
2022-10-05T20:44:24.443Z,11.99
2022-10-05T20:46:51.134Z,11.99
2022-10-05T20:49:17.739Z,11.99
2022-10-05T20:51:44.649Z,12.00
2022-10-05T20:54:11.168Z,12.00
2022-10-05T20:56:37.718Z,11.99
2022-10-05T20:59:04.762Z,11.99
2022-10-05T21:01:32.014Z,11.99
2022-10-05T21:03:58.763Z,12.00
2022-10-05T21:06:28.660Z,11.99
2022-10-05T21:08:55.299Z,11.99
2022-10-05T21:11:21.859Z,11.98
2022-10-05T21:13:50.767Z,11.98
2022-10-05T21:16:19.095Z,11.98
2022-10-05T21:18:47.108Z,11.98
2022-10-05T21:21:17.019Z,11.99
2022-10-05T21:23:44.456Z,11.98
2022-10-05T21:26:12.717Z,11.96
2022-10-05T21:28:41.607Z,11.96
2022-10-05T21:31:08.573Z,11.96
2022-10-05T21:33:35.291Z,11.89
2022-10-05T21:36:02.223Z,11.94
2022-10-05T21:38:29.419Z,11.94
2022-10-05T21:40:56.389Z,11.94
2022-10-05T21:43:23.259Z,11.93
2022-10-05T21:45:49.852Z,11.93
2022-10-05T21:48:16.610Z,11.93
2022-10-05T21:50:44.252Z,11.92
2022-10-05T21:53:13.053Z,11.92
2022-10-05T21:55:41.418Z,11.92
2022-10-05T21:58:08.465Z,11.89
2022-10-05T22:00:35.067Z,11.90
2022-10-05T22:03:01.916Z,11.88
2022-10-05T22:05:28.646Z,11.86
2022-10-05T22:07:55.170Z,11.86
2022-10-05T22:10:21.959Z,11.84
2022-10-05T22:12:48.619Z,11.83
2022-10-05T22:15:15.449Z,11.83
2022-10-05T22:17:42.765Z,11.82
2022-10-05T22:20:13.057Z,11.80
2022-10-05T22:22:39.611Z,11.81
2022-10-05T22:25:06.535Z,11.80
2022-10-05T22:27:33.631Z,11.79
2022-10-05T22:30:00.178Z,11.79
2022-10-05T22:32:26.958Z,11.77
2022-10-05T22:34:53.713Z,11.78
2022-10-05T22:37:20.198Z,11.78
2022-10-05T22:39:47.102Z,11.78
2022-10-05T22:42:13.728Z,11.78
2022-10-05T22:44:40.354Z,11.78
2022-10-05T22:47:07.389Z,11.77
2022-10-05T22:49:33.944Z,11.78
2022-10-05T22:52:00.499Z,11.77
2022-10-05T22:54:30.025Z,11.76
2022-10-05T22:56:57.699Z,11.76
2022-10-05T22:59:24.267Z,11.75
2022-10-05T23:01:51.157Z,11.74
2022-10-05T23:04:17.735Z,11.73
2022-10-05T23:06:44.224Z,11.73
2022-10-05T23:09:11.107Z,11.72
2022-10-05T23:11:37.856Z,11.70
2022-10-05T23:14:04.418Z,11.68
2022-10-05T23:16:31.374Z,11.67
2022-10-05T23:18:59.111Z,11.65
2022-10-05T23:21:27.630Z,11.64
2022-10-05T23:23:54.719Z,11.61
2022-10-05T23:26:22.943Z,11.60
2022-10-05T23:28:50.158Z,11.58
2022-10-05T23:31:19.065Z,11.57
2022-10-05T23:33:45.967Z,11.55
2022-10-05T23:36:14.750Z,11.53
2022-10-05T23:38:42.603Z,11.50
2022-10-05T23:41:09.627Z,11.48
2022-10-05T23:43:36.801Z,11.46
2022-10-05T23:46:04.738Z,11.44
2022-10-05T23:48:31.955Z,11.43
2022-10-05T23:50:58.969Z,11.42
2022-10-05T23:53:26.255Z,11.41
2022-10-05T23:55:53.134Z,11.41
2022-10-05T23:58:20.147Z,11.39
